DTA590 FNBJ-HKJK
Flight info
| Callsign | DTA590 |
|---|---|
| Flight time | 3h 14m |
| Altitude | 39000 |
| Route | VBJ DCT VNA UM306 PARIN PARIN4C |
| Aircraft | B789/H-SDE1E2E3FGHIJ2J3J4J5M1RWXY/LB1D1 |
Departure
| Time | 2026-05-04 17:11 |
|---|---|
| Airport | Dr. Antonio Agostinho Neto International Airport (FNBJ) |
Arrival
| Time | 2026-05-04 20:26 |
|---|---|
| Airport | Jomo Kenyatta International Airport (HKJK) |
| Time | Latitude | Longitude | Altitude | Speed | Heading |
|---|---|---|---|---|---|
| 2026-05-04 16:51 | -9.05482 | 13.49900 | 545 ft | 0 kts | 323° |
| 2026-05-04 16:58 | -9.05495 | 13.49910 | 547 ft | 3 kts | 323° |
| 2026-05-04 16:58 | -9.05511 | 13.49922 | 547 ft | 3 kts | 323° |
| 2026-05-04 16:59 | -9.05536 | 13.49944 | 553 ft | 3 kts | 283° |
| 2026-05-04 17:00 | -9.05521 | 13.49978 | 539 ft | 7 kts | 233° |
| 2026-05-04 17:01 | -9.05522 | 13.49977 | 539 ft | 1 kts | 233° |
| 2026-05-04 17:02 | -9.05542 | 13.49950 | 546 ft | 4 kts | 233° |
| 2026-05-04 17:02 | -9.05613 | 13.49856 | 544 ft | 14 kts | 233° |
| 2026-05-04 17:03 | -9.05680 | 13.49767 | 544 ft | 14 kts | 226° |
| 2026-05-04 17:03 | -9.05723 | 13.49767 | 544 ft | 6 kts | 145° |
| 2026-05-04 17:03 | -9.05808 | 13.49832 | 544 ft | 10 kts | 143° |
| 2026-05-04 17:04 | -9.05953 | 13.49945 | 544 ft | 16 kts | 142° |
| 2026-05-04 17:04 | -9.06028 | 13.50082 | 544 ft | 10 kts | 54° |
| 2026-05-04 17:05 | -9.05939 | 13.50207 | 544 ft | 12 kts | 54° |
| 2026-05-04 17:05 | -9.05828 | 13.50351 | 544 ft | 14 kts | 51° |
| 2026-05-04 17:06 | -9.05711 | 13.50516 | 547 ft | 15 kts | 53° |
| 2026-05-04 17:06 | -9.05649 | 13.50598 | 546 ft | 15 kts | 53° |
| 2026-05-04 17:07 | -9.05529 | 13.50761 | 547 ft | 14 kts | 53° |
| 2026-05-04 17:07 | -9.05490 | 13.50814 | 547 ft | 14 kts | 53° |
| 2026-05-04 17:07 | -9.05409 | 13.50925 | 546 ft | 15 kts | 53° |
| 2026-05-04 17:07 | -9.05347 | 13.51009 | 547 ft | 15 kts | 53° |
| 2026-05-04 17:08 | -9.05284 | 13.51095 | 546 ft | 16 kts | 53° |
| 2026-05-04 17:08 | -9.05149 | 13.51279 | 547 ft | 16 kts | 53° |
| 2026-05-04 17:08 | -9.05083 | 13.51370 | 547 ft | 16 kts | 53° |
| 2026-05-04 17:09 | -9.05016 | 13.51460 | 547 ft | 16 kts | 53° |
| 2026-05-04 17:09 | -9.04951 | 13.51549 | 548 ft | 15 kts | 53° |
| 2026-05-04 17:09 | -9.04889 | 13.51634 | 561 ft | 15 kts | 53° |
| 2026-05-04 17:10 | -9.04811 | 13.51802 | 557 ft | 10 kts | 120° |
| 2026-05-04 17:10 | -9.04993 | 13.51868 | 563 ft | 11 kts | 218° |
| 2026-05-04 17:11 | -9.05061 | 13.51777 | 556 ft | 38 kts | 236° |
| 2026-05-04 17:11 | -9.05371 | 13.51334 | 559 ft | 111 kts | 235° |
| 2026-05-04 17:11 | -9.06516 | 13.49697 | 1362 ft | 140 kts | 237° |
| 2026-05-04 17:12 | -9.07095 | 13.48915 | 1954 ft | 144 kts | 234° |
| 2026-05-04 17:12 | -9.08315 | 13.47226 | 2923 ft | 155 kts | 233° |
| 2026-05-04 17:13 | -9.06916 | 13.44031 | 3962 ft | 229 kts | 326° |
| 2026-05-04 17:14 | -9.02410 | 13.41210 | 5784 ft | 274 kts | 356° |
| 2026-05-04 17:14 | -9.00562 | 13.41552 | 6630 ft | 273 kts | 33° |
| 2026-05-04 17:14 | -8.98389 | 13.44578 | 8357 ft | 277 kts | 72° |
| 2026-05-04 17:15 | -8.97697 | 13.46427 | 9152 ft | 285 kts | 69° |
| 2026-05-04 17:15 | -8.95895 | 13.50134 | 10483 ft | 312 kts | 63° |
| 2026-05-04 17:16 | -8.93766 | 13.54392 | 11007 ft | 359 kts | 65° |
| 2026-05-04 17:16 | -8.90352 | 13.61300 | 13336 ft | 373 kts | 64° |
| 2026-05-04 17:17 | -8.89196 | 13.63634 | 14043 ft | 378 kts | 65° |
| 2026-05-04 17:17 | -8.85623 | 13.70854 | 16215 ft | 388 kts | 64° |
| 2026-05-04 17:18 | -8.84406 | 13.73311 | 16846 ft | 392 kts | 64° |
| 2026-05-04 17:18 | -8.81941 | 13.78287 | 18117 ft | 401 kts | 63° |
| 2026-05-04 17:19 | -8.79427 | 13.83357 | 19274 ft | 406 kts | 63° |
| 2026-05-04 17:19 | -8.76881 | 13.88491 | 20235 ft | 415 kts | 63° |
| 2026-05-04 17:20 | -8.74268 | 13.93759 | 21249 ft | 422 kts | 63° |
| 2026-05-04 17:20 | -8.71613 | 13.99107 | 22189 ft | 429 kts | 63° |
| 2026-05-04 17:20 | -8.70271 | 14.01812 | 22680 ft | 432 kts | 63° |
| 2026-05-04 17:21 | -8.67554 | 14.07282 | 23558 ft | 438 kts | 62° |
| 2026-05-04 17:21 | -8.64804 | 14.12817 | 24302 ft | 443 kts | 63° |
| 2026-05-04 17:22 | -8.63417 | 14.15609 | 24662 ft | 446 kts | 63° |
| 2026-05-04 17:22 | -8.62023 | 14.18413 | 25022 ft | 448 kts | 63° |
| 2026-05-04 17:23 | -8.57796 | 14.26912 | 26092 ft | 455 kts | 63° |
| 2026-05-04 17:23 | -8.56372 | 14.29774 | 26456 ft | 456 kts | 63° |
| 2026-05-04 17:23 | -8.53505 | 14.35534 | 27154 ft | 461 kts | 63° |
| 2026-05-04 17:24 | -8.52060 | 14.38437 | 27478 ft | 464 kts | 63° |
| 2026-05-04 17:24 | -8.47680 | 14.47231 | 28491 ft | 470 kts | 63° |
| 2026-05-04 17:25 | -8.46206 | 14.50188 | 28788 ft | 473 kts | 63° |
| 2026-05-04 17:25 | -8.43701 | 14.56331 | 29410 ft | 476 kts | 72° |
| 2026-05-04 17:26 | -8.41738 | 14.62680 | 30057 ft | 479 kts | 72° |
| 2026-05-04 17:26 | -8.38701 | 14.72369 | 30792 ft | 484 kts | 72° |
| 2026-05-04 17:27 | -8.36678 | 14.78852 | 31258 ft | 488 kts | 72° |
| 2026-05-04 17:27 | -8.34623 | 14.85412 | 31716 ft | 492 kts | 72° |
| 2026-05-04 17:28 | -8.32553 | 14.92028 | 32125 ft | 495 kts | 72° |
| 2026-05-04 17:29 | -8.29422 | 15.02018 | 32739 ft | 500 kts | 72° |
| 2026-05-04 17:29 | -8.26257 | 15.12111 | 33411 ft | 502 kts | 71° |
| 2026-05-04 17:30 | -8.23088 | 15.22206 | 34172 ft | 502 kts | 71° |
| 2026-05-04 17:31 | -8.20988 | 15.28890 | 34639 ft | 502 kts | 71° |
| 2026-05-04 17:31 | -8.17848 | 15.38878 | 35524 ft | 496 kts | 71° |
| 2026-05-04 17:32 | -8.15754 | 15.45534 | 35964 ft | 496 kts | 71° |
| 2026-05-04 17:33 | -8.12630 | 15.55455 | 36622 ft | 496 kts | 71° |
| 2026-05-04 17:33 | -8.11584 | 15.58773 | 36834 ft | 496 kts | 71° |
| 2026-05-04 17:34 | -8.08447 | 15.68726 | 37441 ft | 496 kts | 70° |
| 2026-05-04 17:34 | -8.07399 | 15.72046 | 37647 ft | 496 kts | 70° |
| 2026-05-04 17:35 | -8.04259 | 15.81996 | 38249 ft | 496 kts | 70° |
| 2026-05-04 17:35 | -8.02162 | 15.88632 | 38632 ft | 495 kts | 70° |
| 2026-05-04 17:35 | -8.01118 | 15.91937 | 38789 ft | 495 kts | 70° |
| 2026-05-04 17:36 | -8.00085 | 15.95206 | 38946 ft | 495 kts | 70° |
| 2026-05-04 17:36 | -7.97979 | 16.01861 | 38955 ft | 496 kts | 71° |
| 2026-05-04 17:37 | -7.95902 | 16.08431 | 38938 ft | 487 kts | 71° |
| 2026-05-04 17:37 | -7.93837 | 16.14945 | 38940 ft | 488 kts | 71° |
| 2026-05-04 17:38 | -7.91782 | 16.21433 | 38934 ft | 489 kts | 71° |
| 2026-05-04 17:38 | -7.89710 | 16.27967 | 38932 ft | 489 kts | 71° |
| 2026-05-04 17:39 | -7.86602 | 16.37765 | 38922 ft | 488 kts | 71° |
| 2026-05-04 17:39 | -7.84538 | 16.44265 | 38915 ft | 486 kts | 71° |
| 2026-05-04 17:40 | -7.82483 | 16.50735 | 38904 ft | 487 kts | 71° |
| 2026-05-04 17:40 | -7.80411 | 16.57254 | 38904 ft | 487 kts | 71° |
| 2026-05-04 17:41 | -7.78340 | 16.63766 | 38898 ft | 488 kts | 71° |
| 2026-05-04 17:41 | -7.76264 | 16.70287 | 38901 ft | 488 kts | 71° |
| 2026-05-04 17:42 | -7.74187 | 16.76812 | 38905 ft | 488 kts | 71° |
| 2026-05-04 17:42 | -7.72108 | 16.83335 | 38899 ft | 489 kts | 71° |
| 2026-05-04 17:43 | -7.70028 | 16.89860 | 38895 ft | 489 kts | 71° |
| 2026-05-04 17:43 | -7.67961 | 16.96342 | 38895 ft | 489 kts | 71° |
| 2026-05-04 17:44 | -7.65878 | 17.02869 | 38893 ft | 489 kts | 71° |
| 2026-05-04 17:44 | -7.64147 | 17.08289 | 38893 ft | 489 kts | 71° |
| 2026-05-04 17:45 | -7.62058 | 17.14828 | 38892 ft | 490 kts | 71° |
| 2026-05-04 17:45 | -7.59967 | 17.21368 | 38894 ft | 490 kts | 71° |
| 2026-05-04 17:46 | -7.57877 | 17.27902 | 38893 ft | 489 kts | 71° |
| 2026-05-04 17:46 | -7.55790 | 17.34425 | 38898 ft | 489 kts | 71° |
| 2026-05-04 17:47 | -7.53700 | 17.40942 | 38903 ft | 488 kts | 71° |
| 2026-05-04 17:47 | -7.51609 | 17.47465 | 38902 ft | 488 kts | 71° |
| 2026-05-04 17:48 | -7.49522 | 17.53968 | 38900 ft | 488 kts | 71° |
| 2026-05-04 17:48 | -7.47442 | 17.60446 | 38899 ft | 489 kts | 71° |
| 2026-05-04 17:49 | -7.45348 | 17.66967 | 38905 ft | 489 kts | 71° |
| 2026-05-04 17:49 | -7.43249 | 17.73497 | 38908 ft | 490 kts | 71° |
| 2026-05-04 17:50 | -7.41147 | 17.80035 | 38914 ft | 492 kts | 71° |
| 2026-05-04 17:50 | -7.39036 | 17.86595 | 38917 ft | 491 kts | 71° |
| 2026-05-04 17:51 | -7.36926 | 17.93150 | 38923 ft | 491 kts | 71° |
| 2026-05-04 17:51 | -7.34832 | 17.99650 | 38920 ft | 490 kts | 71° |
| 2026-05-04 17:52 | -7.32728 | 18.06178 | 38926 ft | 489 kts | 71° |
| 2026-05-04 17:52 | -7.30626 | 18.12698 | 38923 ft | 489 kts | 71° |
| 2026-05-04 17:53 | -7.28560 | 18.19177 | 38931 ft | 488 kts | 71° |
| 2026-05-04 17:53 | -7.26524 | 18.25704 | 38929 ft | 488 kts | 71° |
| 2026-05-04 17:54 | -7.24455 | 18.32237 | 38928 ft | 489 kts | 71° |
| 2026-05-04 17:54 | -7.22400 | 18.38778 | 38935 ft | 490 kts | 71° |
| 2026-05-04 17:55 | -7.20333 | 18.45324 | 38948 ft | 490 kts | 71° |
| 2026-05-04 17:55 | -7.18268 | 18.51872 | 38946 ft | 491 kts | 71° |
| 2026-05-04 17:56 | -7.16131 | 18.58354 | 38953 ft | 491 kts | 70° |
| 2026-05-04 17:56 | -7.13971 | 18.64883 | 38951 ft | 491 kts | 70° |
| 2026-05-04 17:57 | -7.11825 | 18.71408 | 38955 ft | 491 kts | 70° |
| 2026-05-04 17:57 | -7.09664 | 18.77935 | 38955 ft | 491 kts | 70° |
| 2026-05-04 17:58 | -7.07518 | 18.84444 | 38952 ft | 488 kts | 70° |
| 2026-05-04 17:58 | -7.05386 | 18.90885 | 38947 ft | 488 kts | 70° |
| 2026-05-04 17:59 | -7.03245 | 18.97367 | 38946 ft | 487 kts | 70° |
| 2026-05-04 18:00 | -7.00031 | 19.07075 | 38944 ft | 486 kts | 70° |
| 2026-05-04 18:00 | -6.97889 | 19.13543 | 38943 ft | 488 kts | 70° |
| 2026-05-04 18:01 | -6.95737 | 19.20040 | 38947 ft | 489 kts | 70° |
| 2026-05-04 18:01 | -6.93584 | 19.26537 | 38948 ft | 489 kts | 70° |
| 2026-05-04 18:02 | -6.90362 | 19.36257 | 38949 ft | 490 kts | 70° |
| 2026-05-04 18:02 | -6.88254 | 19.42780 | 38949 ft | 490 kts | 70° |
| 2026-05-04 18:03 | -6.86133 | 19.49293 | 38944 ft | 489 kts | 70° |
| 2026-05-04 18:03 | -6.84019 | 19.55796 | 38945 ft | 488 kts | 70° |
| 2026-05-04 18:04 | -6.81911 | 19.62275 | 38936 ft | 486 kts | 70° |
| 2026-05-04 18:05 | -6.78761 | 19.71949 | 38932 ft | 486 kts | 70° |
| 2026-05-04 18:05 | -6.76656 | 19.78407 | 38932 ft | 485 kts | 70° |
| 2026-05-04 18:06 | -6.73489 | 19.88092 | 38928 ft | 486 kts | 70° |
| 2026-05-04 18:06 | -6.71373 | 19.94566 | 38927 ft | 487 kts | 70° |
| 2026-05-04 18:07 | -6.69262 | 20.01012 | 38933 ft | 488 kts | 70° |
| 2026-05-04 18:07 | -6.67138 | 20.07502 | 38929 ft | 488 kts | 70° |
| 2026-05-04 18:08 | -6.65013 | 20.13988 | 38933 ft | 488 kts | 70° |
| 2026-05-04 18:08 | -6.62888 | 20.20474 | 38928 ft | 488 kts | 70° |
| 2026-05-04 18:09 | -6.58643 | 20.33419 | 38932 ft | 489 kts | 70° |
| 2026-05-04 18:10 | -6.56508 | 20.39923 | 38930 ft | 489 kts | 70° |
| 2026-05-04 18:10 | -6.54374 | 20.46421 | 38926 ft | 489 kts | 70° |
| 2026-05-04 18:11 | -6.52236 | 20.52931 | 38927 ft | 490 kts | 71° |
| 2026-05-04 18:11 | -6.50099 | 20.59431 | 38929 ft | 489 kts | 71° |
| 2026-05-04 18:12 | -6.47965 | 20.65922 | 38924 ft | 488 kts | 70° |
| 2026-05-04 18:12 | -6.45850 | 20.72353 | 38920 ft | 486 kts | 70° |
| 2026-05-04 18:13 | -6.43723 | 20.78816 | 38916 ft | 486 kts | 70° |
| 2026-05-04 18:14 | -6.40689 | 20.88585 | 38931 ft | 489 kts | 71° |
| 2026-05-04 18:14 | -6.38701 | 20.95129 | 38926 ft | 489 kts | 72° |
| 2026-05-04 18:15 | -6.34715 | 21.08107 | 38922 ft | 487 kts | 72° |
| 2026-05-04 18:16 | -6.32721 | 21.14609 | 38928 ft | 487 kts | 71° |
| 2026-05-04 18:16 | -6.30719 | 21.21119 | 38930 ft | 488 kts | 71° |
| 2026-05-04 18:17 | -6.27709 | 21.30916 | 38929 ft | 489 kts | 71° |
| 2026-05-04 18:18 | -6.24708 | 21.40679 | 38930 ft | 488 kts | 71° |
| 2026-05-04 18:18 | -6.22698 | 21.47207 | 38925 ft | 488 kts | 71° |
| 2026-05-04 18:19 | -6.19691 | 21.56976 | 38924 ft | 487 kts | 71° |
| 2026-05-04 18:19 | -6.17689 | 21.63475 | 38924 ft | 487 kts | 71° |
| 2026-05-04 18:20 | -6.15601 | 21.69939 | 38932 ft | 486 kts | 70° |
| 2026-05-04 18:20 | -6.13526 | 21.76383 | 38946 ft | 488 kts | 70° |
| 2026-05-04 18:21 | -6.11357 | 21.82866 | 38928 ft | 489 kts | 70° |
| 2026-05-04 18:21 | -6.09215 | 21.89368 | 38924 ft | 490 kts | 70° |
| 2026-05-04 18:22 | -6.07059 | 21.95874 | 38932 ft | 490 kts | 70° |
| 2026-05-04 18:22 | -6.04922 | 22.02324 | 38930 ft | 489 kts | 70° |
| 2026-05-04 18:23 | -6.02778 | 22.08799 | 38931 ft | 488 kts | 70° |
| 2026-05-04 18:23 | -6.00635 | 22.15262 | 38925 ft | 487 kts | 70° |
| 2026-05-04 18:24 | -5.98495 | 22.21717 | 38917 ft | 487 kts | 70° |
| 2026-05-04 18:24 | -5.96352 | 22.28176 | 38920 ft | 487 kts | 70° |
| 2026-05-04 18:25 | -5.94213 | 22.34622 | 38923 ft | 486 kts | 70° |
| 2026-05-04 18:25 | -5.92073 | 22.41066 | 38924 ft | 486 kts | 70° |
| 2026-05-04 18:26 | -5.89948 | 22.47461 | 38922 ft | 485 kts | 70° |
| 2026-05-04 18:26 | -5.87683 | 22.53842 | 38930 ft | 486 kts | 70° |
| 2026-05-04 18:27 | -5.85445 | 22.60268 | 38931 ft | 487 kts | 69° |
| 2026-05-04 18:27 | -5.83154 | 22.66688 | 38927 ft | 488 kts | 69° |
| 2026-05-04 18:28 | -5.80897 | 22.73118 | 38932 ft | 488 kts | 69° |
| 2026-05-04 18:28 | -5.78618 | 22.79536 | 38934 ft | 488 kts | 69° |
| 2026-05-04 18:29 | -5.76347 | 22.85974 | 38933 ft | 490 kts | 69° |
| 2026-05-04 18:29 | -5.74072 | 22.92393 | 38936 ft | 490 kts | 69° |
| 2026-05-04 18:30 | -5.70655 | 23.02050 | 38932 ft | 488 kts | 69° |
| 2026-05-04 18:31 | -5.68379 | 23.08473 | 38930 ft | 487 kts | 69° |
| 2026-05-04 18:31 | -5.66492 | 23.13799 | 38918 ft | 488 kts | 69° |
| 2026-05-04 18:32 | -5.64207 | 23.20245 | 38923 ft | 490 kts | 69° |
| 2026-05-04 18:32 | -5.61919 | 23.26700 | 38923 ft | 491 kts | 69° |
| 2026-05-04 18:33 | -5.59624 | 23.33167 | 38927 ft | 491 kts | 69° |
| 2026-05-04 18:33 | -5.57331 | 23.39629 | 38919 ft | 490 kts | 69° |
| 2026-05-04 18:34 | -5.55058 | 23.46033 | 38921 ft | 488 kts | 69° |
| 2026-05-04 18:34 | -5.52717 | 23.52417 | 38921 ft | 487 kts | 68° |
| 2026-05-04 18:35 | -5.50343 | 23.58783 | 38917 ft | 487 kts | 69° |
| 2026-05-04 18:35 | -5.47994 | 23.65167 | 38919 ft | 487 kts | 68° |
| 2026-05-04 18:36 | -5.45624 | 23.71545 | 38916 ft | 487 kts | 68° |
| 2026-05-04 18:36 | -5.43268 | 23.77924 | 38922 ft | 487 kts | 68° |
| 2026-05-04 18:37 | -5.40914 | 23.84268 | 38925 ft | 488 kts | 68° |
| 2026-05-04 18:37 | -5.38551 | 23.90648 | 38925 ft | 488 kts | 68° |
| 2026-05-04 18:38 | -5.36185 | 23.97033 | 38926 ft | 488 kts | 68° |
| 2026-05-04 18:38 | -5.33835 | 24.03432 | 38928 ft | 489 kts | 68° |
| 2026-05-04 18:39 | -5.31470 | 24.09841 | 38928 ft | 489 kts | 68° |
| 2026-05-04 18:39 | -5.29113 | 24.16241 | 38933 ft | 487 kts | 68° |
| 2026-05-04 18:40 | -5.26762 | 24.22566 | 38928 ft | 486 kts | 68° |
| 2026-05-04 18:40 | -5.24391 | 24.28913 | 38925 ft | 486 kts | 68° |
| 2026-05-04 18:41 | -5.22025 | 24.35270 | 38931 ft | 486 kts | 68° |
| 2026-05-04 18:41 | -5.19650 | 24.41630 | 38924 ft | 487 kts | 69° |
| 2026-05-04 18:42 | -5.17270 | 24.48017 | 38933 ft | 490 kts | 69° |
| 2026-05-04 18:42 | -5.14891 | 24.54388 | 38934 ft | 489 kts | 69° |
| 2026-05-04 18:43 | -5.12506 | 24.60778 | 38924 ft | 488 kts | 69° |
| 2026-05-04 18:43 | -5.10125 | 24.67152 | 38921 ft | 487 kts | 69° |
| 2026-05-04 18:44 | -5.07750 | 24.73511 | 38922 ft | 486 kts | 69° |
| 2026-05-04 18:44 | -5.05371 | 24.79876 | 38922 ft | 488 kts | 69° |
| 2026-05-04 18:45 | -5.02995 | 24.86231 | 38925 ft | 490 kts | 69° |
| 2026-05-04 18:45 | -5.00600 | 24.92637 | 38924 ft | 490 kts | 69° |
| 2026-05-04 18:46 | -4.98210 | 24.99025 | 38921 ft | 488 kts | 69° |
| 2026-05-04 18:46 | -4.95823 | 25.05403 | 38922 ft | 487 kts | 68° |
| 2026-05-04 18:47 | -4.93448 | 25.11749 | 38920 ft | 486 kts | 68° |
| 2026-05-04 18:47 | -4.91067 | 25.18108 | 38917 ft | 487 kts | 68° |
| 2026-05-04 18:48 | -4.88699 | 25.24430 | 38917 ft | 487 kts | 68° |
| 2026-05-04 18:48 | -4.86314 | 25.30796 | 38921 ft | 488 kts | 68° |
| 2026-05-04 18:49 | -4.83925 | 25.37168 | 38922 ft | 488 kts | 68° |
| 2026-05-04 18:49 | -4.81528 | 25.43562 | 38918 ft | 489 kts | 68° |
| 2026-05-04 18:50 | -4.79136 | 25.49942 | 38923 ft | 488 kts | 68° |
| 2026-05-04 18:50 | -4.76744 | 25.56316 | 38922 ft | 488 kts | 68° |
| 2026-05-04 18:51 | -4.74357 | 25.62676 | 38916 ft | 487 kts | 68° |
| 2026-05-04 18:51 | -4.71984 | 25.68999 | 38912 ft | 486 kts | 69° |
| 2026-05-04 18:52 | -4.69601 | 25.75343 | 38909 ft | 486 kts | 69° |
| 2026-05-04 18:52 | -4.67225 | 25.81669 | 38905 ft | 485 kts | 69° |
| 2026-05-04 18:53 | -4.64869 | 25.87939 | 38906 ft | 486 kts | 69° |
| 2026-05-04 18:53 | -4.62481 | 25.94293 | 38907 ft | 488 kts | 69° |
| 2026-05-04 18:54 | -4.60087 | 26.00659 | 38911 ft | 487 kts | 69° |
| 2026-05-04 18:54 | -4.57699 | 26.07010 | 38911 ft | 487 kts | 69° |
| 2026-05-04 18:55 | -4.55310 | 26.13360 | 38910 ft | 487 kts | 69° |
| 2026-05-04 18:55 | -4.51727 | 26.22880 | 38908 ft | 486 kts | 69° |
| 2026-05-04 18:56 | -4.49355 | 26.29186 | 38909 ft | 487 kts | 69° |
| 2026-05-04 18:56 | -4.46958 | 26.35555 | 38912 ft | 489 kts | 69° |
| 2026-05-04 18:57 | -4.44557 | 26.41933 | 38908 ft | 489 kts | 69° |
| 2026-05-04 18:57 | -4.42158 | 26.48300 | 38907 ft | 488 kts | 69° |
| 2026-05-04 18:58 | -4.39764 | 26.54658 | 38906 ft | 487 kts | 69° |
| 2026-05-04 18:58 | -4.37369 | 26.61012 | 38905 ft | 486 kts | 69° |
| 2026-05-04 18:59 | -4.34982 | 26.67346 | 38910 ft | 486 kts | 69° |
| 2026-05-04 18:59 | -4.32602 | 26.73657 | 38910 ft | 488 kts | 69° |
| 2026-05-04 19:00 | -4.30201 | 26.80024 | 38917 ft | 489 kts | 69° |
| 2026-05-04 19:00 | -4.27805 | 26.86411 | 38921 ft | 490 kts | 69° |
| 2026-05-04 19:01 | -4.25423 | 26.92787 | 38923 ft | 486 kts | 69° |
| 2026-05-04 19:01 | -4.23047 | 26.99125 | 38919 ft | 485 kts | 69° |
| 2026-05-04 19:02 | -4.20677 | 27.05459 | 38927 ft | 485 kts | 69° |
| 2026-05-04 19:02 | -4.18321 | 27.11743 | 38929 ft | 485 kts | 69° |
| 2026-05-04 19:03 | -4.15948 | 27.18078 | 38925 ft | 485 kts | 69° |
| 2026-05-04 19:03 | -4.13578 | 27.24400 | 38929 ft | 484 kts | 69° |
| 2026-05-04 19:04 | -4.11201 | 27.30719 | 38935 ft | 484 kts | 69° |
| 2026-05-04 19:04 | -4.08802 | 27.37029 | 38937 ft | 485 kts | 69° |
| 2026-05-04 19:05 | -4.06415 | 27.43347 | 38940 ft | 485 kts | 69° |
| 2026-05-04 19:05 | -4.04021 | 27.49660 | 38949 ft | 485 kts | 69° |
| 2026-05-04 19:06 | -4.01623 | 27.55991 | 38950 ft | 487 kts | 69° |
| 2026-05-04 19:06 | -3.99218 | 27.62337 | 38959 ft | 488 kts | 69° |
| 2026-05-04 19:07 | -3.96810 | 27.68688 | 38957 ft | 487 kts | 69° |
| 2026-05-04 19:07 | -3.94419 | 27.74992 | 38969 ft | 487 kts | 69° |
| 2026-05-04 19:08 | -3.92018 | 27.81324 | 38966 ft | 486 kts | 69° |
| 2026-05-04 19:08 | -3.89620 | 27.87644 | 38983 ft | 486 kts | 69° |
| 2026-05-04 19:09 | -3.87219 | 27.93971 | 38985 ft | 485 kts | 69° |
| 2026-05-04 19:09 | -3.84821 | 28.00286 | 38980 ft | 485 kts | 69° |
| 2026-05-04 19:10 | -3.82421 | 28.06608 | 38985 ft | 486 kts | 69° |
| 2026-05-04 19:10 | -3.80013 | 28.12949 | 38994 ft | 487 kts | 69° |
| 2026-05-04 19:11 | -3.77603 | 28.19292 | 39018 ft | 487 kts | 69° |
| 2026-05-04 19:11 | -3.75204 | 28.25605 | 39013 ft | 487 kts | 69° |
| 2026-05-04 19:12 | -3.71589 | 28.35115 | 39026 ft | 487 kts | 69° |
| 2026-05-04 19:13 | -3.69178 | 28.41457 | 39028 ft | 487 kts | 69° |
| 2026-05-04 19:13 | -3.66768 | 28.47794 | 39045 ft | 486 kts | 69° |
| 2026-05-04 19:14 | -3.64362 | 28.54119 | 39043 ft | 485 kts | 69° |
| 2026-05-04 19:14 | -3.61955 | 28.60447 | 39058 ft | 486 kts | 69° |
| 2026-05-04 19:15 | -3.59561 | 28.66736 | 39090 ft | 487 kts | 69° |
| 2026-05-04 19:15 | -3.57153 | 28.73045 | 39092 ft | 484 kts | 69° |
| 2026-05-04 19:16 | -3.54749 | 28.79351 | 39105 ft | 484 kts | 69° |
| 2026-05-04 19:16 | -3.52750 | 28.84590 | 39101 ft | 484 kts | 69° |
| 2026-05-04 19:17 | -3.50347 | 28.90889 | 39092 ft | 484 kts | 69° |
| 2026-05-04 19:17 | -3.47941 | 28.97195 | 39097 ft | 484 kts | 69° |
| 2026-05-04 19:18 | -3.45560 | 29.03465 | 39073 ft | 481 kts | 69° |
| 2026-05-04 19:18 | -3.43174 | 29.09742 | 39044 ft | 482 kts | 69° |
| 2026-05-04 19:19 | -3.40788 | 29.16019 | 39020 ft | 483 kts | 69° |
| 2026-05-04 19:19 | -3.38418 | 29.22253 | 39006 ft | 482 kts | 69° |
| 2026-05-04 19:20 | -3.36031 | 29.28527 | 38999 ft | 482 kts | 69° |
| 2026-05-04 19:20 | -3.33969 | 29.34887 | 38993 ft | 481 kts | 76° |
| 2026-05-04 19:21 | -3.32350 | 29.41402 | 39003 ft | 482 kts | 76° |
| 2026-05-04 19:21 | -3.30731 | 29.47924 | 39014 ft | 482 kts | 76° |
| 2026-05-04 19:22 | -3.29122 | 29.54405 | 39041 ft | 482 kts | 76° |
| 2026-05-04 19:22 | -3.27504 | 29.60914 | 39066 ft | 481 kts | 76° |
| 2026-05-04 19:23 | -3.25889 | 29.67414 | 39086 ft | 481 kts | 76° |
| 2026-05-04 19:23 | -3.24273 | 29.73915 | 39101 ft | 481 kts | 76° |
| 2026-05-04 19:24 | -3.22653 | 29.80431 | 39103 ft | 482 kts | 76° |
| 2026-05-04 19:24 | -3.21043 | 29.86904 | 39103 ft | 485 kts | 76° |
| 2026-05-04 19:25 | -3.19409 | 29.93474 | 39107 ft | 486 kts | 76° |
| 2026-05-04 19:25 | -3.17775 | 30.00040 | 39099 ft | 485 kts | 76° |
| 2026-05-04 19:26 | -3.16146 | 30.06584 | 39094 ft | 484 kts | 76° |
| 2026-05-04 19:26 | -3.14517 | 30.13125 | 39096 ft | 483 kts | 76° |
| 2026-05-04 19:27 | -3.12892 | 30.19651 | 39087 ft | 482 kts | 76° |
| 2026-05-04 19:27 | -3.11266 | 30.26179 | 39090 ft | 484 kts | 76° |
| 2026-05-04 19:28 | -3.09642 | 30.32694 | 39095 ft | 485 kts | 76° |
| 2026-05-04 19:28 | -3.08010 | 30.39241 | 39092 ft | 485 kts | 76° |
| 2026-05-04 19:29 | -3.06381 | 30.45774 | 39095 ft | 484 kts | 76° |
| 2026-05-04 19:29 | -3.04754 | 30.52300 | 39092 ft | 482 kts | 76° |
| 2026-05-04 19:30 | -3.03132 | 30.58800 | 39085 ft | 481 kts | 76° |
| 2026-05-04 19:30 | -3.01507 | 30.65310 | 39084 ft | 483 kts | 76° |
| 2026-05-04 19:31 | -2.99876 | 30.71846 | 39085 ft | 484 kts | 76° |
| 2026-05-04 19:31 | -2.98252 | 30.78350 | 39082 ft | 485 kts | 76° |
| 2026-05-04 19:32 | -2.96598 | 30.84906 | 39081 ft | 484 kts | 75° |
| 2026-05-04 19:32 | -2.94937 | 30.91434 | 39083 ft | 484 kts | 75° |
| 2026-05-04 19:33 | -2.93284 | 30.97967 | 39075 ft | 484 kts | 76° |
| 2026-05-04 19:33 | -2.91627 | 31.04490 | 39072 ft | 483 kts | 76° |
| 2026-05-04 19:34 | -2.89977 | 31.11001 | 39072 ft | 483 kts | 76° |
| 2026-05-04 19:34 | -2.88333 | 31.17477 | 39069 ft | 483 kts | 76° |
| 2026-05-04 19:35 | -2.86676 | 31.24004 | 39062 ft | 484 kts | 76° |
| 2026-05-04 19:35 | -2.85023 | 31.30514 | 39068 ft | 480 kts | 76° |
| 2026-05-04 19:36 | -2.83379 | 31.36990 | 39059 ft | 480 kts | 76° |
| 2026-05-04 19:36 | -2.81735 | 31.43460 | 39053 ft | 480 kts | 76° |
| 2026-05-04 19:37 | -2.80101 | 31.49891 | 39055 ft | 480 kts | 76° |
| 2026-05-04 19:37 | -2.78458 | 31.56355 | 39048 ft | 478 kts | 76° |
| 2026-05-04 19:38 | -2.76821 | 31.62796 | 39052 ft | 477 kts | 76° |
| 2026-05-04 19:38 | -2.75183 | 31.69238 | 39041 ft | 478 kts | 76° |
| 2026-05-04 19:39 | -2.73542 | 31.75687 | 39036 ft | 478 kts | 76° |
| 2026-05-04 19:39 | -2.71901 | 31.82140 | 39042 ft | 477 kts | 75° |
| 2026-05-04 19:40 | -2.70269 | 31.88552 | 39036 ft | 475 kts | 75° |
| 2026-05-04 19:40 | -2.68647 | 31.94925 | 39036 ft | 476 kts | 75° |
| 2026-05-04 19:41 | -2.67011 | 32.01352 | 39041 ft | 477 kts | 75° |
| 2026-05-04 19:41 | -2.65370 | 32.07796 | 39037 ft | 478 kts | 75° |
| 2026-05-04 19:42 | -2.63733 | 32.14223 | 39037 ft | 475 kts | 75° |
| 2026-05-04 19:42 | -2.62103 | 32.20621 | 39042 ft | 475 kts | 75° |
| 2026-05-04 19:43 | -2.60481 | 32.26987 | 39042 ft | 475 kts | 75° |
| 2026-05-04 19:43 | -2.58849 | 32.33390 | 39052 ft | 475 kts | 75° |
| 2026-05-04 19:44 | -2.57217 | 32.39793 | 39044 ft | 474 kts | 75° |
| 2026-05-04 19:44 | -2.55590 | 32.46172 | 39052 ft | 473 kts | 75° |
| 2026-05-04 19:45 | -2.53974 | 32.52510 | 39058 ft | 472 kts | 75° |
| 2026-05-04 19:45 | -2.52353 | 32.58864 | 39057 ft | 472 kts | 75° |
| 2026-05-04 19:46 | -2.50729 | 32.65229 | 39071 ft | 473 kts | 75° |
| 2026-05-04 19:46 | -2.49106 | 32.71591 | 39067 ft | 471 kts | 76° |
| 2026-05-04 19:47 | -2.47692 | 32.77998 | 39076 ft | 472 kts | 77° |
| 2026-05-04 19:47 | -2.46260 | 32.84416 | 39088 ft | 473 kts | 77° |
| 2026-05-04 19:48 | -2.44863 | 32.90853 | 39086 ft | 473 kts | 77° |
| 2026-05-04 19:48 | -2.43234 | 32.97214 | 39076 ft | 472 kts | 75° |
| 2026-05-04 19:49 | -2.41497 | 33.03565 | 39085 ft | 474 kts | 75° |
| 2026-05-04 19:49 | -2.39746 | 33.09883 | 39081 ft | 473 kts | 75° |
| 2026-05-04 19:50 | -2.37998 | 33.16226 | 39087 ft | 472 kts | 75° |
| 2026-05-04 19:50 | -2.36255 | 33.22533 | 39077 ft | 469 kts | 75° |
| 2026-05-04 19:51 | -2.34517 | 33.28826 | 39077 ft | 469 kts | 75° |
| 2026-05-04 19:51 | -2.32778 | 33.35121 | 39075 ft | 469 kts | 75° |
| 2026-05-04 19:52 | -2.31049 | 33.41379 | 39078 ft | 469 kts | 75° |
| 2026-05-04 19:52 | -2.29310 | 33.47671 | 39079 ft | 469 kts | 75° |
| 2026-05-04 19:53 | -2.27572 | 33.53961 | 39080 ft | 469 kts | 75° |
| 2026-05-04 19:53 | -2.25831 | 33.60259 | 39081 ft | 470 kts | 75° |
| 2026-05-04 19:54 | -2.24089 | 33.66558 | 39078 ft | 470 kts | 75° |
| 2026-05-04 19:54 | -2.22360 | 33.72811 | 39092 ft | 468 kts | 75° |
| 2026-05-04 19:55 | -2.20627 | 33.79075 | 39097 ft | 467 kts | 75° |
| 2026-05-04 19:55 | -2.18898 | 33.85327 | 39101 ft | 467 kts | 75° |
| 2026-05-04 19:56 | -2.17165 | 33.91589 | 39108 ft | 468 kts | 74° |
| 2026-05-04 19:56 | -2.15427 | 33.97868 | 39111 ft | 468 kts | 75° |
| 2026-05-04 19:57 | -2.13691 | 34.04142 | 39109 ft | 468 kts | 75° |
| 2026-05-04 19:57 | -2.11956 | 34.10408 | 39109 ft | 467 kts | 75° |
| 2026-05-04 19:58 | -2.10224 | 34.16664 | 39107 ft | 467 kts | 75° |
| 2026-05-04 19:58 | -2.08505 | 34.22870 | 39112 ft | 466 kts | 75° |
| 2026-05-04 19:59 | -2.06519 | 34.29043 | 39113 ft | 466 kts | 71° |
| 2026-05-04 19:59 | -2.04399 | 34.35176 | 39117 ft | 467 kts | 71° |
| 2026-05-04 20:00 | -2.02264 | 34.41311 | 39119 ft | 467 kts | 71° |
| 2026-05-04 20:00 | -2.00362 | 34.47521 | 39113 ft | 467 kts | 74° |
| 2026-05-04 20:01 | -1.98584 | 34.53775 | 39114 ft | 468 kts | 74° |
| 2026-05-04 20:01 | -1.96825 | 34.60014 | 39115 ft | 469 kts | 74° |
| 2026-05-04 20:02 | -1.95047 | 34.66300 | 39113 ft | 469 kts | 74° |
| 2026-05-04 20:02 | -1.93570 | 34.71525 | 39113 ft | 469 kts | 74° |
| 2026-05-04 20:03 | -1.91797 | 34.77799 | 39121 ft | 469 kts | 75° |
| 2026-05-04 20:03 | -1.90021 | 34.84076 | 39126 ft | 469 kts | 75° |
| 2026-05-04 20:04 | -1.88245 | 34.90360 | 39124 ft | 470 kts | 75° |
| 2026-05-04 20:04 | -1.86475 | 34.96616 | 39127 ft | 470 kts | 75° |
| 2026-05-04 20:05 | -1.84867 | 35.02929 | 39121 ft | 468 kts | 77° |
| 2026-05-04 20:05 | -1.83357 | 35.09283 | 39135 ft | 470 kts | 77° |
| 2026-05-04 20:06 | -1.81873 | 35.15652 | 39149 ft | 470 kts | 77° |
| 2026-05-04 20:06 | -1.80375 | 35.22021 | 39149 ft | 470 kts | 77° |
| 2026-05-04 20:07 | -1.78883 | 35.28389 | 39163 ft | 471 kts | 77° |
| 2026-05-04 20:07 | -1.77393 | 35.34738 | 39162 ft | 471 kts | 77° |
| 2026-05-04 20:08 | -1.76033 | 35.41141 | 39177 ft | 471 kts | 78° |
| 2026-05-04 20:08 | -1.74657 | 35.47558 | 39196 ft | 472 kts | 78° |
| 2026-05-04 20:08 | -1.74005 | 35.50743 | 38877 ft | 466 kts | 79° |
| 2026-05-04 20:09 | -1.73351 | 35.53931 | 37892 ft | 471 kts | 78° |
| 2026-05-04 20:09 | -1.72678 | 35.57141 | 37133 ft | 472 kts | 78° |
| 2026-05-04 20:09 | -1.72003 | 35.60352 | 36402 ft | 471 kts | 79° |
| 2026-05-04 20:09 | -1.71335 | 35.63564 | 35651 ft | 472 kts | 79° |
| 2026-05-04 20:10 | -1.70669 | 35.66779 | 34887 ft | 473 kts | 79° |
| 2026-05-04 20:10 | -1.69996 | 35.70008 | 34071 ft | 475 kts | 79° |
| 2026-05-04 20:10 | -1.69319 | 35.73248 | 33198 ft | 476 kts | 79° |
| 2026-05-04 20:10 | -1.68652 | 35.76448 | 32331 ft | 477 kts | 79° |
| 2026-05-04 20:11 | -1.67975 | 35.79701 | 31448 ft | 478 kts | 79° |
| 2026-05-04 20:11 | -1.67315 | 35.82865 | 30591 ft | 453 kts | 79° |
| 2026-05-04 20:11 | -1.66663 | 35.85996 | 29141 ft | 471 kts | 79° |
| 2026-05-04 20:11 | -1.65988 | 35.89244 | 27627 ft | 483 kts | 79° |
| 2026-05-04 20:12 | -1.65297 | 35.92556 | 26457 ft | 488 kts | 79° |
| 2026-05-04 20:12 | -1.64604 | 35.95868 | 25574 ft | 485 kts | 79° |
| 2026-05-04 20:12 | -1.63917 | 35.99163 | 24708 ft | 482 kts | 79° |
| 2026-05-04 20:12 | -1.63237 | 36.02430 | 23868 ft | 479 kts | 79° |
| 2026-05-04 20:13 | -1.62559 | 36.05681 | 22961 ft | 475 kts | 79° |
| 2026-05-04 20:13 | -1.61888 | 36.08897 | 22133 ft | 468 kts | 79° |
| 2026-05-04 20:13 | -1.61228 | 36.12061 | 21311 ft | 462 kts | 79° |
| 2026-05-04 20:13 | -1.60584 | 36.15148 | 20523 ft | 457 kts | 78° |
| 2026-05-04 20:14 | -1.59941 | 36.18231 | 19723 ft | 440 kts | 79° |
| 2026-05-04 20:14 | -1.59344 | 36.21088 | 19003 ft | 401 kts | 78° |
| 2026-05-04 20:14 | -1.58798 | 36.23706 | 18324 ft | 370 kts | 78° |
| 2026-05-04 20:14 | -1.58294 | 36.26126 | 17659 ft | 342 kts | 78° |
| 2026-05-04 20:15 | -1.57816 | 36.28422 | 16877 ft | 336 kts | 78° |
| 2026-05-04 20:15 | -1.57338 | 36.30710 | 16291 ft | 336 kts | 78° |
| 2026-05-04 20:15 | -1.56860 | 36.33000 | 15710 ft | 336 kts | 78° |
| 2026-05-04 20:15 | -1.56381 | 36.35292 | 15122 ft | 336 kts | 78° |
| 2026-05-04 20:16 | -1.55904 | 36.37580 | 14556 ft | 336 kts | 78° |
| 2026-05-04 20:16 | -1.55426 | 36.39869 | 13977 ft | 336 kts | 78° |
| 2026-05-04 20:16 | -1.54950 | 36.42148 | 13361 ft | 334 kts | 78° |
| 2026-05-04 20:16 | -1.54477 | 36.44414 | 12775 ft | 331 kts | 78° |
| 2026-05-04 20:17 | -1.54014 | 36.46630 | 12229 ft | 329 kts | 78° |
| 2026-05-04 20:17 | -1.53549 | 36.48857 | 11666 ft | 326 kts | 78° |
| 2026-05-04 20:17 | -1.53089 | 36.51066 | 11129 ft | 323 kts | 78° |
| 2026-05-04 20:17 | -1.52637 | 36.53226 | 10925 ft | 309 kts | 78° |
| 2026-05-04 20:18 | -1.52210 | 36.55271 | 10809 ft | 293 kts | 78° |
| 2026-05-04 20:18 | -1.51803 | 36.57218 | 10690 ft | 278 kts | 78° |
| 2026-05-04 20:18 | -1.51415 | 36.59079 | 10571 ft | 273 kts | 78° |
| 2026-05-04 20:18 | -1.51024 | 36.60954 | 10364 ft | 279 kts | 78° |
| 2026-05-04 20:19 | -1.50630 | 36.62835 | 10066 ft | 273 kts | 78° |
| 2026-05-04 20:19 | -1.50245 | 36.64680 | 9755 ft | 272 kts | 78° |
| 2026-05-04 20:19 | -1.49859 | 36.66528 | 9480 ft | 273 kts | 78° |
| 2026-05-04 20:19 | -1.49455 | 36.68378 | 9192 ft | 269 kts | 74° |
| 2026-05-04 20:20 | -1.48558 | 36.69996 | 8928 ft | 268 kts | 54° |
| 2026-05-04 20:20 | -1.47505 | 36.71444 | 8674 ft | 251 kts | 56° |
| 2026-05-04 20:20 | -1.46534 | 36.72786 | 8399 ft | 226 kts | 55° |
| 2026-05-04 20:20 | -1.45649 | 36.73995 | 8121 ft | 205 kts | 55° |
| 2026-05-04 20:21 | -1.44851 | 36.75086 | 7977 ft | 184 kts | 55° |
| 2026-05-04 20:21 | -1.44137 | 36.76063 | 7990 ft | 167 kts | 56° |
| 2026-05-04 20:21 | -1.42820 | 36.77868 | 7992 ft | 158 kts | 56° |
| 2026-05-04 20:22 | -1.42170 | 36.78759 | 8003 ft | 158 kts | 56° |
| 2026-05-04 20:22 | -1.41522 | 36.79647 | 7987 ft | 159 kts | 56° |
| 2026-05-04 20:22 | -1.40871 | 36.80536 | 8012 ft | 158 kts | 56° |
| 2026-05-04 20:22 | -1.40220 | 36.81427 | 8049 ft | 160 kts | 56° |
| 2026-05-04 20:23 | -1.39556 | 36.82336 | 7942 ft | 160 kts | 56° |
| 2026-05-04 20:23 | -1.38907 | 36.83225 | 7773 ft | 157 kts | 56° |
| 2026-05-04 20:23 | -1.38267 | 36.84100 | 7578 ft | 158 kts | 56° |
| 2026-05-04 20:23 | -1.37625 | 36.84977 | 7361 ft | 156 kts | 57° |
| 2026-05-04 20:24 | -1.36983 | 36.85855 | 7129 ft | 157 kts | 57° |
| 2026-05-04 20:24 | -1.36328 | 36.86725 | 6808 ft | 156 kts | 55° |
| 2026-05-04 20:24 | -1.35672 | 36.87580 | 6487 ft | 154 kts | 56° |
| 2026-05-04 20:24 | -1.35059 | 36.88465 | 6129 ft | 156 kts | 55° |
| 2026-05-04 20:25 | -1.34421 | 36.89318 | 5889 ft | 154 kts | 56° |
| 2026-05-04 20:25 | -1.33802 | 36.90194 | 5667 ft | 156 kts | 56° |
| 2026-05-04 20:25 | -1.33158 | 36.91070 | 5459 ft | 155 kts | 54° |
| 2026-05-04 20:25 | -1.32538 | 36.91929 | 5341 ft | 144 kts | 54° |
| 2026-05-04 20:26 | -1.32082 | 36.92565 | 5334 ft | 90 kts | 54° |
| 2026-05-04 20:26 | -1.31781 | 36.92979 | 5313 ft | 67 kts | 54° |
| 2026-05-04 20:26 | -1.31571 | 36.93275 | 5307 ft | 30 kts | 65° |
| 2026-05-04 20:26 | -1.31591 | 36.93349 | 5309 ft | 9 kts | 148° |
| 2026-05-04 20:27 | -1.31645 | 36.93385 | 5308 ft | 9 kts | 144° |
| 2026-05-04 20:27 | -1.31695 | 36.93421 | 5308 ft | 8 kts | 144° |
| 2026-05-04 20:27 | -1.31736 | 36.93450 | 5312 ft | 6 kts | 144° |
| 2026-05-04 20:27 | -1.31768 | 36.93473 | 5312 ft | 5 kts | 148° |
| 2026-05-04 20:28 | -1.31787 | 36.93478 | 5312 ft | 1 kts | 184° |
| 2026-05-04 20:28 | -1.31788 | 36.93478 | 5313 ft | 1 kts | 186° |